sensor_id;sensor_type;location;lat;lon;timestamp;P1;durP1;ratioP1;P2;durP2;ratioP2
52620;SDS011;38515;53.160;6.990;2023-02-15T00:01:49;34.55;;;29.38;;
52620;SDS011;38515;53.160;6.990;2023-02-15T00:04:16;37.63;;;28.88;;
52620;SDS011;38515;53.160;6.990;2023-02-15T00:06:44;41.42;;;33.17;;
52620;SDS011;38515;53.160;6.990;2023-02-15T00:09:10;43.25;;;30.75;;
52620;SDS011;38515;53.160;6.990;2023-02-15T00:11:37;48.50;;;31.10;;
52620;SDS011;38515;53.160;6.990;2023-02-15T00:14:20;41.42;;;29.15;;
52620;SDS011;38515;53.160;6.990;2023-02-15T00:16:48;52.63;;;32.35;;
52620;SDS011;38515;53.160;6.990;2023-02-15T00:19:16;36.42;;;26.80;;
52620;SDS011;38515;53.160;6.990;2023-02-15T00:21:44;39.85;;;27.50;;
52620;SDS011;38515;53.160;6.990;2023-02-15T00:24:11;33.50;;;25.83;;
52620;SDS011;38515;53.160;6.990;2023-02-15T00:26:39;31.60;;;23.17;;
52620;SDS011;38515;53.160;6.990;2023-02-15T00:29:05;49.33;;;27.98;;
52620;SDS011;38515;53.160;6.990;2023-02-15T00:31:32;31.85;;;25.30;;
52620;SDS011;38515;53.160;6.990;2023-02-15T00:34:03;27.15;;;20.20;;
52620;SDS011;38515;53.160;6.990;2023-02-15T00:36:35;22.80;;;18.83;;
52620;SDS011;38515;53.160;6.990;2023-02-15T00:39:01;29.15;;;20.45;;
52620;SDS011;38515;53.160;6.990;2023-02-15T00:41:28;37.70;;;22.73;;
52620;SDS011;38515;53.160;6.990;2023-02-15T00:43:53;28.13;;;23.50;;
52620;SDS011;38515;53.160;6.990;2023-02-15T00:46:19;23.70;;;19.77;;
52620;SDS011;38515;53.160;6.990;2023-02-15T00:48:45;32.53;;;22.45;;
52620;SDS011;38515;53.160;6.990;2023-02-15T00:51:11;133.80;;;40.13;;
52620;SDS011;38515;53.160;6.990;2023-02-15T00:53:37;68.93;;;26.90;;
52620;SDS011;38515;53.160;6.990;2023-02-15T00:56:03;40.95;;;24.77;;
52620;SDS011;38515;53.160;6.990;2023-02-15T00:58:29;39.42;;;19.60;;
52620;SDS011;38515;53.160;6.990;2023-02-15T01:00:55;39.85;;;21.65;;
52620;SDS011;38515;53.160;6.990;2023-02-15T01:03:29;85.43;;;31.25;;
52620;SDS011;38515;53.160;6.990;2023-02-15T01:05:55;32.63;;;26.85;;
52620;SDS011;38515;53.160;6.990;2023-02-15T01:08:21;25.52;;;23.20;;
52620;SDS011;38515;53.160;6.990;2023-02-15T01:10:46;34.97;;;27.17;;
52620;SDS011;38515;53.160;6.990;2023-02-15T01:13:14;43.90;;;32.78;;
52620;SDS011;38515;53.160;6.990;2023-02-15T01:15:40;32.63;;;26.92;;
52620;SDS011;38515;53.160;6.990;2023-02-15T01:18:07;31.25;;;24.75;;
52620;SDS011;38515;53.160;6.990;2023-02-15T01:20:34;86.53;;;31.95;;
52620;SDS011;38515;53.160;6.990;2023-02-15T01:23:04;36.28;;;22.23;;
52620;SDS011;38515;53.160;6.990;2023-02-15T01:25:32;37.92;;;23.50;;
52620;SDS011;38515;53.160;6.990;2023-02-15T01:27:58;46.25;;;22.73;;
52620;SDS011;38515;53.160;6.990;2023-02-15T01:30:24;41.75;;;23.02;;
52620;SDS011;38515;53.160;6.990;2023-02-15T01:32:50;37.28;;;19.73;;
52620;SDS011;38515;53.160;6.990;2023-02-15T01:35:16;30.83;;;21.63;;
52620;SDS011;38515;53.160;6.990;2023-02-15T01:37:42;134.45;;;37.80;;
52620;SDS011;38515;53.160;6.990;2023-02-15T01:40:10;171.25;;;41.33;;
52620;SDS011;38515;53.160;6.990;2023-02-15T01:42:38;190.73;;;51.30;;
52620;SDS011;38515;53.160;6.990;2023-02-15T01:45:14;219.05;;;37.35;;
52620;SDS011;38515;53.160;6.990;2023-02-15T01:47:48;108.82;;;36.00;;
52620;SDS011;38515;53.160;6.990;2023-02-15T01:50:21;162.55;;;37.13;;
52620;SDS011;38515;53.160;6.990;2023-02-15T01:52:49;134.88;;;35.15;;
52620;SDS011;38515;53.160;6.990;2023-02-15T01:55:20;119.90;;;38.42;;
52620;SDS011;38515;53.160;6.990;2023-02-15T01:57:48;90.15;;;26.13;;
52620;SDS011;38515;53.160;6.990;2023-02-15T02:00:16;89.43;;;27.10;;
52620;SDS011;38515;53.160;6.990;2023-02-15T02:02:43;194.55;;;43.65;;
52620;SDS011;38515;53.160;6.990;2023-02-15T02:05:12;230.57;;;49.63;;
52620;SDS011;38515;53.160;6.990;2023-02-15T02:07:39;138.27;;;42.10;;
52620;SDS011;38515;53.160;6.990;2023-02-15T02:10:09;114.95;;;38.47;;
52620;SDS011;38515;53.160;6.990;2023-02-15T02:12:37;68.68;;;38.00;;
52620;SDS011;38515;53.160;6.990;2023-02-15T02:15:06;177.52;;;44.55;;
52620;SDS011;38515;53.160;6.990;2023-02-15T02:17:42;112.35;;;37.67;;
52620;SDS011;38515;53.160;6.990;2023-02-15T02:20:34;96.70;;;28.58;;
52620;SDS011;38515;53.160;6.990;2023-02-15T02:23:28;49.35;;;24.20;;
52620;SDS011;38515;53.160;6.990;2023-02-15T02:34:33;38.17;;;22.63;;
52620;SDS011;38515;53.160;6.990;2023-02-15T02:37:16;30.75;;;23.67;;
52620;SDS011;38515;53.160;6.990;2023-02-15T02:42:29;29.98;;;23.65;;
52620;SDS011;38515;53.160;6.990;2023-02-15T02:45:06;39.60;;;24.50;;
52620;SDS011;38515;53.160;6.990;2023-02-15T02:47:36;37.83;;;27.77;;
52620;SDS011;38515;53.160;6.990;2023-02-15T02:50:13;35.47;;;24.52;;
52620;SDS011;38515;53.160;6.990;2023-02-15T03:00:38;40.60;;;24.38;;
52620;SDS011;38515;53.160;6.990;2023-02-15T03:03:30;24.60;;;19.65;;
52620;SDS011;38515;53.160;6.990;2023-02-15T03:06:02;25.67;;;19.07;;
52620;SDS011;38515;53.160;6.990;2023-02-15T03:08:38;18.67;;;16.75;;
52620;SDS011;38515;53.160;6.990;2023-02-15T03:11:08;34.85;;;18.70;;
52620;SDS011;38515;53.160;6.990;2023-02-15T03:13:36;20.83;;;17.90;;
52620;SDS011;38515;53.160;6.990;2023-02-15T03:16:02;30.63;;;17.08;;
52620;SDS011;38515;53.160;6.990;2023-02-15T03:18:51;67.45;;;21.02;;
52620;SDS011;38515;53.160;6.990;2023-02-15T03:21:32;73.43;;;39.50;;
52620;SDS011;38515;53.160;6.990;2023-02-15T03:24:07;51.33;;;28.77;;
52620;SDS011;38515;53.160;6.990;2023-02-15T03:26:46;30.10;;;22.02;;
52620;SDS011;38515;53.160;6.990;2023-02-15T03:29:15;26.90;;;20.10;;
52620;SDS011;38515;53.160;6.990;2023-02-15T03:31:43;23.13;;;20.70;;
52620;SDS011;38515;53.160;6.990;2023-02-15T03:34:13;31.63;;;21.40;;
52620;SDS011;38515;53.160;6.990;2023-02-15T03:47:20;41.42;;;23.77;;
52620;SDS011;38515;53.160;6.990;2023-02-15T03:49:55;36.83;;;22.30;;
52620;SDS011;38515;53.160;6.990;2023-02-15T03:52:49;31.08;;;23.05;;
52620;SDS011;38515;53.160;6.990;2023-02-15T03:55:15;56.38;;;23.25;;
52620;SDS011;38515;53.160;6.990;2023-02-15T03:57:41;47.97;;;22.77;;
52620;SDS011;38515;53.160;6.990;2023-02-15T04:00:26;51.88;;;23.00;;
52620;SDS011;38515;53.160;6.990;2023-02-15T04:03:15;45.92;;;25.02;;
52620;SDS011;38515;53.160;6.990;2023-02-15T04:05:55;84.75;;;26.35;;
52620;SDS011;38515;53.160;6.990;2023-02-15T04:08:20;39.25;;;26.30;;
52620;SDS011;38515;53.160;6.990;2023-02-15T04:15:58;115.25;;;25.50;;
52620;SDS011;38515;53.160;6.990;2023-02-15T04:21:15;154.07;;;30.80;;
52620;SDS011;38515;53.160;6.990;2023-02-15T04:23:59;58.15;;;25.70;;
52620;SDS011;38515;53.160;6.990;2023-02-15T04:26:43;102.32;;;27.85;;
52620;SDS011;38515;53.160;6.990;2023-02-15T04:29:10;120.55;;;28.50;;
52620;SDS011;38515;53.160;6.990;2023-02-15T04:31:35;88.78;;;30.35;;
52620;SDS011;38515;53.160;6.990;2023-02-15T04:34:01;126.47;;;36.17;;
52620;SDS011;38515;53.160;6.990;2023-02-15T04:36:27;94.32;;;32.53;;
52620;SDS011;38515;53.160;6.990;2023-02-15T04:38:53;84.47;;;26.92;;
52620;SDS011;38515;53.160;6.990;2023-02-15T04:41:19;110.45;;;31.38;;
52620;SDS011;38515;53.160;6.990;2023-02-15T04:43:45;97.32;;;44.28;;
52620;SDS011;38515;53.160;6.990;2023-02-15T04:46:11;183.95;;;53.70;;
52620;SDS011;38515;53.160;6.990;2023-02-15T04:48:37;125.30;;;47.92;;
52620;SDS011;38515;53.160;6.990;2023-02-15T04:51:06;115.07;;;47.28;;
52620;SDS011;38515;53.160;6.990;2023-02-15T04:53:32;80.50;;;39.33;;
52620;SDS011;38515;53.160;6.990;2023-02-15T04:55:59;89.35;;;46.92;;
52620;SDS011;38515;53.160;6.990;2023-02-15T04:58:24;49.33;;;35.80;;
52620;SDS011;38515;53.160;6.990;2023-02-15T05:00:54;105.45;;;43.55;;
52620;SDS011;38515;53.160;6.990;2023-02-15T05:03:20;58.50;;;39.00;;
52620;SDS011;38515;53.160;6.990;2023-02-15T05:05:46;116.72;;;37.15;;
52620;SDS011;38515;53.160;6.990;2023-02-15T05:08:12;342.02;;;68.88;;
52620;SDS011;38515;53.160;6.990;2023-02-15T05:10:38;184.10;;;54.65;;
52620;SDS011;38515;53.160;6.990;2023-02-15T05:13:04;274.42;;;67.53;;
52620;SDS011;38515;53.160;6.990;2023-02-15T05:15:30;241.70;;;61.63;;
52620;SDS011;38515;53.160;6.990;2023-02-15T05:17:56;174.57;;;57.55;;
52620;SDS011;38515;53.160;6.990;2023-02-15T05:20:22;155.80;;;53.05;;
52620;SDS011;38515;53.160;6.990;2023-02-15T05:22:48;153.07;;;52.83;;
52620;SDS011;38515;53.160;6.990;2023-02-15T05:25:14;226.13;;;60.88;;
52620;SDS011;38515;53.160;6.990;2023-02-15T05:27:58;222.77;;;53.50;;
52620;SDS011;38515;53.160;6.990;2023-02-15T05:30:42;154.90;;;50.97;;
52620;SDS011;38515;53.160;6.990;2023-02-15T05:33:08;130.40;;;44.53;;
52620;SDS011;38515;53.160;6.990;2023-02-15T05:35:34;101.20;;;35.30;;
52620;SDS011;38515;53.160;6.990;2023-02-15T05:38:00;124.93;;;46.67;;
52620;SDS011;38515;53.160;6.990;2023-02-15T05:40:26;66.28;;;35.88;;
52620;SDS011;38515;53.160;6.990;2023-02-15T05:42:52;172.45;;;47.58;;
52620;SDS011;38515;53.160;6.990;2023-02-15T05:45:18;219.40;;;60.47;;
52620;SDS011;38515;53.160;6.990;2023-02-15T05:47:44;84.80;;;43.38;;
52620;SDS011;38515;53.160;6.990;2023-02-15T05:50:10;77.88;;;45.72;;
52620;SDS011;38515;53.160;6.990;2023-02-15T05:52:36;54.80;;;38.08;;
52620;SDS011;38515;53.160;6.990;2023-02-15T05:55:02;39.67;;;27.42;;
52620;SDS011;38515;53.160;6.990;2023-02-15T05:57:29;48.75;;;35.55;;
52620;SDS011;38515;53.160;6.990;2023-02-15T05:59:55;39.60;;;35.75;;
52620;SDS011;38515;53.160;6.990;2023-02-15T06:02:22;40.90;;;36.58;;
52620;SDS011;38515;53.160;6.990;2023-02-15T06:04:48;46.72;;;40.97;;
52620;SDS011;38515;53.160;6.990;2023-02-15T06:07:14;45.22;;;38.17;;
52620;SDS011;38515;53.160;6.990;2023-02-15T06:09:40;41.03;;;36.72;;
52620;SDS011;38515;53.160;6.990;2023-02-15T06:12:05;39.53;;;34.80;;
52620;SDS011;38515;53.160;6.990;2023-02-15T06:14:31;61.35;;;44.30;;
52620;SDS011;38515;53.160;6.990;2023-02-15T06:16:57;50.90;;;42.53;;
52620;SDS011;38515;53.160;6.990;2023-02-15T06:19:23;47.72;;;42.35;;
52620;SDS011;38515;53.160;6.990;2023-02-15T06:21:49;52.67;;;37.03;;
52620;SDS011;38515;53.160;6.990;2023-02-15T06:24:15;47.58;;;38.58;;
52620;SDS011;38515;53.160;6.990;2023-02-15T06:26:41;50.85;;;39.53;;
52620;SDS011;38515;53.160;6.990;2023-02-15T06:29:07;49.63;;;44.20;;
52620;SDS011;38515;53.160;6.990;2023-02-15T06:31:33;46.22;;;41.33;;
52620;SDS011;38515;53.160;6.990;2023-02-15T06:33:59;47.45;;;41.53;;
52620;SDS011;38515;53.160;6.990;2023-02-15T06:36:28;52.78;;;43.10;;
52620;SDS011;38515;53.160;6.990;2023-02-15T06:38:54;42.63;;;38.05;;
52620;SDS011;38515;53.160;6.990;2023-02-15T06:41:20;49.53;;;41.42;;
52620;SDS011;38515;53.160;6.990;2023-02-15T06:43:46;53.85;;;43.53;;
52620;SDS011;38515;53.160;6.990;2023-02-15T06:46:12;47.33;;;40.78;;
52620;SDS011;38515;53.160;6.990;2023-02-15T06:48:38;49.70;;;38.28;;
52620;SDS011;38515;53.160;6.990;2023-02-15T06:51:04;46.72;;;41.95;;
52620;SDS011;38515;53.160;6.990;2023-02-15T06:53:30;55.60;;;41.58;;
52620;SDS011;38515;53.160;6.990;2023-02-15T06:56:03;50.00;;;42.80;;
52620;SDS011;38515;53.160;6.990;2023-02-15T06:58:41;47.95;;;40.10;;
52620;SDS011;38515;53.160;6.990;2023-02-15T07:01:08;54.72;;;46.00;;
52620;SDS011;38515;53.160;6.990;2023-02-15T07:03:34;53.13;;;44.45;;
52620;SDS011;38515;53.160;6.990;2023-02-15T07:06:01;55.55;;;43.53;;
52620;SDS011;38515;53.160;6.990;2023-02-15T07:08:28;56.63;;;39.92;;
52620;SDS011;38515;53.160;6.990;2023-02-15T07:10:55;48.40;;;43.40;;
52620;SDS011;38515;53.160;6.990;2023-02-15T07:13:44;47.55;;;36.55;;
52620;SDS011;38515;53.160;6.990;2023-02-15T07:16:11;37.10;;;30.63;;
52620;SDS011;38515;53.160;6.990;2023-02-15T07:18:37;51.92;;;31.70;;
52620;SDS011;38515;53.160;6.990;2023-02-15T07:21:03;42.33;;;29.23;;
52620;SDS011;38515;53.160;6.990;2023-02-15T07:23:29;44.25;;;30.95;;
52620;SDS011;38515;53.160;6.990;2023-02-15T07:26:01;49.83;;;26.52;;
52620;SDS011;38515;53.160;6.990;2023-02-15T07:28:28;46.33;;;28.95;;
52620;SDS011;38515;53.160;6.990;2023-02-15T07:30:57;42.17;;;30.98;;
52620;SDS011;38515;53.160;6.990;2023-02-15T07:33:23;37.65;;;28.38;;
52620;SDS011;38515;53.160;6.990;2023-02-15T07:35:53;30.33;;;26.50;;
52620;SDS011;38515;53.160;6.990;2023-02-15T07:38:22;38.65;;;28.35;;
52620;SDS011;38515;53.160;6.990;2023-02-15T07:40:48;52.47;;;33.67;;
52620;SDS011;38515;53.160;6.990;2023-02-15T07:43:14;52.17;;;33.45;;
52620;SDS011;38515;53.160;6.990;2023-02-15T07:45:40;51.00;;;36.50;;
52620;SDS011;38515;53.160;6.990;2023-02-15T07:48:06;42.40;;;29.85;;
52620;SDS011;38515;53.160;6.990;2023-02-15T07:50:32;49.92;;;33.70;;
52620;SDS011;38515;53.160;6.990;2023-02-15T07:53:00;42.83;;;31.58;;
52620;SDS011;38515;53.160;6.990;2023-02-15T07:55:27;52.35;;;36.92;;
52620;SDS011;38515;53.160;6.990;2023-02-15T07:57:53;48.90;;;33.88;;
52620;SDS011;38515;53.160;6.990;2023-02-15T08:00:20;63.05;;;56.22;;
52620;SDS011;38515;53.160;6.990;2023-02-15T08:02:53;54.15;;;44.17;;
52620;SDS011;38515;53.160;6.990;2023-02-15T08:05:42;42.20;;;29.13;;
52620;SDS011;38515;53.160;6.990;2023-02-15T08:08:09;40.20;;;29.27;;
52620;SDS011;38515;53.160;6.990;2023-02-15T08:11:14;41.85;;;27.05;;
52620;SDS011;38515;53.160;6.990;2023-02-15T08:13:57;41.22;;;27.45;;
52620;SDS011;38515;53.160;6.990;2023-02-15T08:19:03;49.92;;;40.55;;
52620;SDS011;38515;53.160;6.990;2023-02-15T08:21:34;47.65;;;39.08;;
52620;SDS011;38515;53.160;6.990;2023-02-15T08:24:02;58.58;;;43.33;;
52620;SDS011;38515;53.160;6.990;2023-02-15T08:26:30;47.05;;;37.42;;
52620;SDS011;38515;53.160;6.990;2023-02-15T08:28:57;41.28;;;35.63;;
52620;SDS011;38515;53.160;6.990;2023-02-15T08:31:23;44.60;;;35.13;;
52620;SDS011;38515;53.160;6.990;2023-02-15T08:33:50;45.20;;;35.67;;
52620;SDS011;38515;53.160;6.990;2023-02-15T08:36:19;48.90;;;37.72;;
52620;SDS011;38515;53.160;6.990;2023-02-15T08:38:46;47.42;;;36.83;;
52620;SDS011;38515;53.160;6.990;2023-02-15T08:41:20;42.08;;;35.33;;
52620;SDS011;38515;53.160;6.990;2023-02-15T08:43:54;48.60;;;37.92;;
52620;SDS011;38515;53.160;6.990;2023-02-15T08:46:22;45.65;;;36.97;;
52620;SDS011;38515;53.160;6.990;2023-02-15T08:48:49;48.05;;;38.78;;
52620;SDS011;38515;53.160;6.990;2023-02-15T08:51:17;42.78;;;36.50;;
52620;SDS011;38515;53.160;6.990;2023-02-15T08:53:47;41.90;;;34.45;;
52620;SDS011;38515;53.160;6.990;2023-02-15T08:56:14;45.22;;;36.08;;
52620;SDS011;38515;53.160;6.990;2023-02-15T08:58:42;40.55;;;32.15;;
52620;SDS011;38515;53.160;6.990;2023-02-15T09:01:14;45.22;;;32.25;;
52620;SDS011;38515;53.160;6.990;2023-02-15T09:03:54;44.67;;;36.17;;
52620;SDS011;38515;53.160;6.990;2023-02-15T09:06:25;44.13;;;36.30;;
52620;SDS011;38515;53.160;6.990;2023-02-15T09:08:52;45.67;;;32.70;;
52620;SDS011;38515;53.160;6.990;2023-02-15T09:11:23;42.35;;;32.28;;
52620;SDS011;38515;53.160;6.990;2023-02-15T09:13:55;42.53;;;33.58;;
52620;SDS011;38515;53.160;6.990;2023-02-15T09:16:25;37.92;;;30.33;;
52620;SDS011;38515;53.160;6.990;2023-02-15T09:18:54;38.30;;;32.03;;
52620;SDS011;38515;53.160;6.990;2023-02-15T09:21:22;34.53;;;28.23;;
52620;SDS011;38515;53.160;6.990;2023-02-15T09:23:51;37.75;;;31.02;;
52620;SDS011;38515;53.160;6.990;2023-02-15T09:26:20;41.83;;;32.65;;
52620;SDS011;38515;53.160;6.990;2023-02-15T09:28:47;36.08;;;29.58;;
52620;SDS011;38515;53.160;6.990;2023-02-15T09:31:18;38.72;;;31.02;;
52620;SDS011;38515;53.160;6.990;2023-02-15T09:33:46;34.42;;;29.02;;
52620;SDS011;38515;53.160;6.990;2023-02-15T09:36:14;40.33;;;31.65;;
52620;SDS011;38515;53.160;6.990;2023-02-15T09:38:46;37.50;;;31.92;;
52620;SDS011;38515;53.160;6.990;2023-02-15T09:44:38;39.78;;;31.85;;
52620;SDS011;38515;53.160;6.990;2023-02-15T09:52:55;43.42;;;33.83;;
52620;SDS011;38515;53.160;6.990;2023-02-15T09:55:55;39.03;;;33.10;;
52620;SDS011;38515;53.160;6.990;2023-02-15T10:01:06;41.58;;;32.92;;
52620;SDS011;38515;53.160;6.990;2023-02-15T10:11:50;41.80;;;33.78;;
52620;SDS011;38515;53.160;6.990;2023-02-15T10:27:39;42.40;;;34.67;;
52620;SDS011;38515;53.160;6.990;2023-02-15T10:30:13;44.67;;;34.47;;
52620;SDS011;38515;53.160;6.990;2023-02-15T10:42:16;41.92;;;34.72;;
52620;SDS011;38515;53.160;6.990;2023-02-15T10:44:58;41.22;;;33.55;;
52620;SDS011;38515;53.160;6.990;2023-02-15T10:53:09;43.47;;;35.20;;
52620;SDS011;38515;53.160;6.990;2023-02-15T10:56:03;42.97;;;32.38;;
52620;SDS011;38515;53.160;6.990;2023-02-15T10:59:04;42.15;;;32.80;;
52620;SDS011;38515;53.160;6.990;2023-02-15T11:01:53;47.60;;;34.40;;
52620;SDS011;38515;53.160;6.990;2023-02-15T11:07:15;42.05;;;34.33;;
52620;SDS011;38515;53.160;6.990;2023-02-15T11:09:49;40.30;;;31.67;;
52620;SDS011;38515;53.160;6.990;2023-02-15T11:12:23;40.15;;;33.45;;
52620;SDS011;38515;53.160;6.990;2023-02-15T11:15:00;41.80;;;31.88;;
52620;SDS011;38515;53.160;6.990;2023-02-15T11:17:49;48.75;;;35.60;;
52620;SDS011;38515;53.160;6.990;2023-02-15T11:23:01;45.58;;;34.92;;
52620;SDS011;38515;53.160;6.990;2023-02-15T11:25:31;42.00;;;33.95;;
52620;SDS011;38515;53.160;6.990;2023-02-15T11:28:00;45.30;;;33.85;;
52620;SDS011;38515;53.160;6.990;2023-02-15T11:30:40;44.60;;;36.05;;
52620;SDS011;38515;53.160;6.990;2023-02-15T11:36:08;43.10;;;34.78;;
52620;SDS011;38515;53.160;6.990;2023-02-15T11:38:36;48.65;;;36.03;;
52620;SDS011;38515;53.160;6.990;2023-02-15T11:41:13;41.85;;;33.42;;
52620;SDS011;38515;53.160;6.990;2023-02-15T11:43:46;51.17;;;36.45;;
52620;SDS011;38515;53.160;6.990;2023-02-15T11:46:18;48.45;;;37.85;;
52620;SDS011;38515;53.160;6.990;2023-02-15T11:48:46;48.80;;;36.50;;
52620;SDS011;38515;53.160;6.990;2023-02-15T11:51:13;42.38;;;33.78;;
52620;SDS011;38515;53.160;6.990;2023-02-15T11:53:41;44.05;;;33.92;;
52620;SDS011;38515;53.160;6.990;2023-02-15T11:56:15;44.13;;;34.08;;
52620;SDS011;38515;53.160;6.990;2023-02-15T12:03:57;46.97;;;33.83;;
52620;SDS011;38515;53.160;6.990;2023-02-15T12:06:28;48.20;;;33.78;;
52620;SDS011;38515;53.160;6.990;2023-02-15T12:11:54;46.22;;;34.00;;
52620;SDS011;38515;53.160;6.990;2023-02-15T12:14:48;43.13;;;33.47;;
52620;SDS011;38515;53.160;6.990;2023-02-15T12:17:16;42.78;;;32.38;;
52620;SDS011;38515;53.160;6.990;2023-02-15T12:19:48;40.72;;;31.98;;
52620;SDS011;38515;53.160;6.990;2023-02-15T12:22:28;42.58;;;32.88;;
52620;SDS011;38515;53.160;6.990;2023-02-15T12:25:00;42.83;;;32.72;;
52620;SDS011;38515;53.160;6.990;2023-02-15T12:27:48;46.85;;;33.17;;
52620;SDS011;38515;53.160;6.990;2023-02-15T12:30:19;43.50;;;31.80;;
52620;SDS011;38515;53.160;6.990;2023-02-15T12:32:54;43.00;;;31.98;;
52620;SDS011;38515;53.160;6.990;2023-02-15T12:35:32;40.72;;;31.15;;
52620;SDS011;38515;53.160;6.990;2023-02-15T12:40:30;45.10;;;32.70;;
52620;SDS011;38515;53.160;6.990;2023-02-15T12:42:58;44.78;;;31.33;;
52620;SDS011;38515;53.160;6.990;2023-02-15T12:45:26;42.72;;;32.03;;
52620;SDS011;38515;53.160;6.990;2023-02-15T12:50:43;46.38;;;32.40;;
52620;SDS011;38515;53.160;6.990;2023-02-15T12:53:20;42.50;;;31.20;;
52620;SDS011;38515;53.160;6.990;2023-02-15T12:55:52;40.38;;;30.60;;
52620;SDS011;38515;53.160;6.990;2023-02-15T12:58:22;45.10;;;34.55;;
52620;SDS011;38515;53.160;6.990;2023-02-15T13:01:12;47.33;;;33.53;;
52620;SDS011;38515;53.160;6.990;2023-02-15T13:03:58;46.30;;;34.67;;
52620;SDS011;38515;53.160;6.990;2023-02-15T13:06:26;46.20;;;32.83;;
52620;SDS011;38515;53.160;6.990;2023-02-15T13:08:56;38.65;;;30.80;;
52620;SDS011;38515;53.160;6.990;2023-02-15T13:11:30;44.67;;;32.83;;
52620;SDS011;38515;53.160;6.990;2023-02-15T13:14:00;45.50;;;32.53;;
52620;SDS011;38515;53.160;6.990;2023-02-15T13:16:30;47.05;;;33.97;;
52620;SDS011;38515;53.160;6.990;2023-02-15T13:21:40;46.72;;;33.75;;
52620;SDS011;38515;53.160;6.990;2023-02-15T13:27:08;44.90;;;32.88;;
52620;SDS011;38515;53.160;6.990;2023-02-15T13:29:39;49.42;;;36.65;;
52620;SDS011;38515;53.160;6.990;2023-02-15T13:32:29;50.10;;;33.50;;
52620;SDS011;38515;53.160;6.990;2023-02-15T13:35:01;48.88;;;36.92;;
52620;SDS011;38515;53.160;6.990;2023-02-15T13:40:08;46.70;;;35.90;;
52620;SDS011;38515;53.160;6.990;2023-02-15T13:53:44;47.83;;;36.58;;
52620;SDS011;38515;53.160;6.990;2023-02-15T13:56:47;47.70;;;34.70;;
52620;SDS011;38515;53.160;6.990;2023-02-15T13:59:28;53.58;;;37.97;;
52620;SDS011;38515;53.160;6.990;2023-02-15T14:05:14;45.78;;;36.45;;
52620;SDS011;38515;53.160;6.990;2023-02-15T14:07:52;47.92;;;35.88;;
52620;SDS011;38515;53.160;6.990;2023-02-15T14:10:27;51.05;;;39.25;;
52620;SDS011;38515;53.160;6.990;2023-02-15T14:15:54;48.00;;;35.92;;
52620;SDS011;38515;53.160;6.990;2023-02-15T14:18:42;48.25;;;33.70;;
52620;SDS011;38515;53.160;6.990;2023-02-15T14:34:53;46.47;;;34.88;;
52620;SDS011;38515;53.160;6.990;2023-02-15T14:37:29;46.05;;;34.90;;
52620;SDS011;38515;53.160;6.990;2023-02-15T14:40:25;47.03;;;35.47;;
52620;SDS011;38515;53.160;6.990;2023-02-15T14:45:57;42.03;;;31.90;;
52620;SDS011;38515;53.160;6.990;2023-02-15T14:48:37;46.17;;;34.57;;
52620;SDS011;38515;53.160;6.990;2023-02-15T14:51:04;41.75;;;31.73;;
52620;SDS011;38515;53.160;6.990;2023-02-15T15:01:29;47.07;;;32.17;;
52620;SDS011;38515;53.160;6.990;2023-02-15T15:04:00;42.42;;;32.38;;
52620;SDS011;38515;53.160;6.990;2023-02-15T15:06:34;45.63;;;32.95;;
52620;SDS011;38515;53.160;6.990;2023-02-15T15:09:22;43.08;;;29.48;;
52620;SDS011;38515;53.160;6.990;2023-02-15T15:11:52;37.05;;;30.73;;
52620;SDS011;38515;53.160;6.990;2023-02-15T15:17:01;45.90;;;33.47;;
52620;SDS011;38515;53.160;6.990;2023-02-15T15:22:20;42.47;;;32.45;;
52620;SDS011;38515;53.160;6.990;2023-02-15T15:24:47;48.35;;;33.67;;
52620;SDS011;38515;53.160;6.990;2023-02-15T15:32:40;49.03;;;37.25;;
52620;SDS011;38515;53.160;6.990;2023-02-15T15:42:07;48.85;;;35.15;;
52620;SDS011;38515;53.160;6.990;2023-02-15T15:49:59;44.83;;;33.97;;
52620;SDS011;38515;53.160;6.990;2023-02-15T15:52:26;44.33;;;33.38;;
52620;SDS011;38515;53.160;6.990;2023-02-15T15:54:55;46.13;;;33.03;;
52620;SDS011;38515;53.160;6.990;2023-02-15T15:57:34;46.50;;;33.65;;
52620;SDS011;38515;53.160;6.990;2023-02-15T16:02:54;43.83;;;33.78;;
52620;SDS011;38515;53.160;6.990;2023-02-15T16:05:23;46.63;;;32.97;;
52620;SDS011;38515;53.160;6.990;2023-02-15T16:07:49;44.63;;;32.67;;
52620;SDS011;38515;53.160;6.990;2023-02-15T16:10:25;44.50;;;32.17;;
52620;SDS011;38515;53.160;6.990;2023-02-15T16:12:54;47.92;;;34.30;;
52620;SDS011;38515;53.160;6.990;2023-02-15T16:18:17;44.58;;;32.72;;
52620;SDS011;38515;53.160;6.990;2023-02-15T16:29:17;51.78;;;37.15;;
52620;SDS011;38515;53.160;6.990;2023-02-15T16:32:01;52.83;;;38.33;;
52620;SDS011;38515;53.160;6.990;2023-02-15T16:34:31;47.55;;;34.92;;
52620;SDS011;38515;53.160;6.990;2023-02-15T16:37:14;45.95;;;35.15;;
52620;SDS011;38515;53.160;6.990;2023-02-15T16:39:41;56.97;;;38.35;;
52620;SDS011;38515;53.160;6.990;2023-02-15T16:42:09;34.80;;;22.17;;
52620;SDS011;38515;53.160;6.990;2023-02-15T16:44:36;45.22;;;34.20;;
52620;SDS011;38515;53.160;6.990;2023-02-15T16:47:03;51.83;;;36.65;;
52620;SDS011;38515;53.160;6.990;2023-02-15T16:49:29;48.63;;;35.38;;
52620;SDS011;38515;53.160;6.990;2023-02-15T16:51:59;38.38;;;21.55;;
52620;SDS011;38515;53.160;6.990;2023-02-15T16:54:32;41.00;;;29.27;;
52620;SDS011;38515;53.160;6.990;2023-02-15T16:56:59;52.25;;;37.13;;
52620;SDS011;38515;53.160;6.990;2023-02-15T17:01:58;49.50;;;36.75;;
52620;SDS011;38515;53.160;6.990;2023-02-15T17:07:06;35.42;;;20.80;;
52620;SDS011;38515;53.160;6.990;2023-02-15T17:09:52;48.30;;;35.88;;
52620;SDS011;38515;53.160;6.990;2023-02-15T17:15:31;43.05;;;24.60;;
52620;SDS011;38515;53.160;6.990;2023-02-15T17:18:22;54.85;;;36.78;;
52620;SDS011;38515;53.160;6.990;2023-02-15T17:20:49;51.80;;;38.45;;
52620;SDS011;38515;53.160;6.990;2023-02-15T17:23:30;51.08;;;37.72;;
52620;SDS011;38515;53.160;6.990;2023-02-15T17:25:57;34.83;;;24.33;;
52620;SDS011;38515;53.160;6.990;2023-02-15T17:28:26;41.83;;;25.42;;
52620;SDS011;38515;53.160;6.990;2023-02-15T17:30:55;45.70;;;34.95;;
52620;SDS011;38515;53.160;6.990;2023-02-15T17:33:23;54.13;;;38.13;;
52620;SDS011;38515;53.160;6.990;2023-02-15T17:36:12;37.42;;;22.48;;
52620;SDS011;38515;53.160;6.990;2023-02-15T17:41:26;50.40;;;35.28;;
52620;SDS011;38515;53.160;6.990;2023-02-15T17:43:54;51.38;;;36.83;;
52620;SDS011;38515;53.160;6.990;2023-02-15T17:46:20;37.67;;;21.75;;
52620;SDS011;38515;53.160;6.990;2023-02-15T17:48:52;49.88;;;35.47;;
52620;SDS011;38515;53.160;6.990;2023-02-15T17:51:20;40.55;;;23.48;;
52620;SDS011;38515;53.160;6.990;2023-02-15T17:53:49;51.97;;;36.72;;
52620;SDS011;38515;53.160;6.990;2023-02-15T17:56:42;42.72;;;21.33;;
52620;SDS011;38515;53.160;6.990;2023-02-15T17:59:08;54.78;;;36.58;;
52620;SDS011;38515;53.160;6.990;2023-02-15T18:01:38;38.38;;;21.23;;
52620;SDS011;38515;53.160;6.990;2023-02-15T18:04:28;43.47;;;22.45;;
52620;SDS011;38515;53.160;6.990;2023-02-15T18:07:13;48.72;;;37.65;;
52620;SDS011;38515;53.160;6.990;2023-02-15T18:10:00;31.73;;;19.77;;
52620;SDS011;38515;53.160;6.990;2023-02-15T18:12:45;51.90;;;40.17;;
52620;SDS011;38515;53.160;6.990;2023-02-15T18:15:11;37.65;;;22.52;;